METAR AND TAF INFORMATION

METAR FOR LIRQ
ADDS - METARS form results

(0747 UTC 24 July 2021)
Data provider http://aviationweather.gov/metar/data/
 
METAR text: LIRQ 240720Z VRB01KT CAVOK 25/20 Q1014
Conditions at: LIRQ (FIRENZE/PERETOLA, IT) observed 0720 UTC 24 July 2021
Temperature: 25.0°C (77°F)
Dewpoint: 20.0°C (68°F) [RH = 74%]
Pressure (altimeter): 29.94 inches Hg (1014.0 mb)
Winds: variable direction winds at 1 MPH (1 knots; 0.5 m/s)
Visibility: 6 or more miles (10+ km)
Ceiling: ceiling and visibility are OK
Clouds: unknown
Weather: no significant weather observed at this time

METAR text: LIRQ 240650Z VRB02KT CAVOK 24/20 Q1014
Conditions at: LIRQ (FIRENZE/PERETOLA, IT) observed 0650 UTC 24 July 2021
Temperature: 24.0°C (75°F)
Dewpoint: 20.0°C (68°F) [RH = 78%]
Pressure (altimeter): 29.94 inches Hg (1014.0 mb)
Winds: variable direction winds at 2 MPH (2 knots; 1.0 m/s)
Visibility: 6 or more miles (10+ km)
Ceiling: ceiling and visibility are OK
Clouds: unknown
Weather: no significant weather observed at this time

Forecast for: LIRQ (FIRENZE/PERETOLA, IT)
Text: TAF LIRQ 240500Z 2406/2506 VRB04KT 9999 FEW030
Forecast period: 0600 to 0900 UTC 24 July 2021
Forecast type: FROM: standard forecast or significant change
Winds: variable direction winds at 5 MPH (4 knots; 2.1 m/s)
Visibility: 6 or more miles (10+ km)
Ceiling: at least 12,000 feet AGL
Clouds: few clouds at 3000 feet AGL
Weather: no significant weather forecast for this period
Text: BECMG 2409/2411 24010KT
Forecast period: 0900 to 1700 UTC 24 July 2021
Forecast type: BECOMING: Conditions expected to become as follows by 1100 UTC 24 July 2021
Winds: from the WSW (240 degrees) at 12 MPH (10 knots; 5.1 m/s)
Visibility: 6 or more miles (10+ km)
Ceiling: at least 12,000 feet AGL
Clouds: few clouds at 3000 feet AGL
Weather: no significant weather forecast for this period
Text: BECMG 2417/2419 VRB05KT
Forecast period: 1700 UTC 24 July 2021 to 0600 UTC 25 July 2021
Forecast type: BECOMING: Conditions expected to become as follows by 1900 UTC 24 July 2021
Winds: variable direction winds at 6 MPH (5 knots; 2.6 m/s)
Visibility: 6 or more miles (10+ km)
Ceiling: at least 12,000 feet AGL
Clouds: few clouds at 3000 feet AGL
Weather: no significant weather forecast for this period

 

AIRPORT MAP

 

RUNWAY INFORMATION

Runway 05 Runway length 5425 ft Runway width 98 ft
Runway elevation 123 ft Runway displaced threshold 492 ft Runway heading 48
Runway 23 Runway length 5425 ft Runway width 98 ft
Runway elevation 132 ft Runway displaced threshold 2287 ft Runway heading 228

 

AIRPORT FREQUENCIES

Type APP Name APP Frequency 126.075 MHZ
Type ATIS Name ATIS Frequency 129.35 MHZ
Type TWR Name FIRENZE TW Frequency 118.3 MHZ

 

AIRPORT NEAR NAVIGATION AIDS

Type VOR-DME Name Peretola Frequency 112500 KHZ